createdAt,value
2022-07-27T00:00:08.276Z,0.00
2022-07-27T00:01:08.394Z,0.00
2022-07-27T00:02:08.268Z,0.00
2022-07-27T00:03:08.265Z,0.00
2022-07-27T00:04:08.321Z,0.00
2022-07-27T00:05:08.257Z,0.00
2022-07-27T00:06:08.249Z,0.00
2022-07-27T00:07:08.247Z,0.00
2022-07-27T00:08:08.241Z,0.00
2022-07-27T00:09:08.394Z,0.00
2022-07-27T00:10:08.233Z,0.00
2022-07-27T00:11:08.232Z,0.00
2022-07-27T00:12:08.224Z,0.00
2022-07-27T00:13:08.220Z,0.00
2022-07-27T00:14:08.214Z,0.00
2022-07-27T00:15:08.214Z,0.00
2022-07-27T00:16:08.294Z,0.00
2022-07-27T00:17:08.203Z,0.00
2022-07-27T00:18:08.199Z,0.00
2022-07-27T00:19:09.162Z,0.00
2022-07-27T00:20:08.190Z,0.00
2022-07-27T00:21:08.189Z,0.00
2022-07-27T00:22:08.180Z,0.00
2022-07-27T00:23:08.184Z,0.00
2022-07-27T00:24:08.176Z,0.00
2022-07-27T00:25:08.170Z,0.00
2022-07-27T00:26:08.165Z,0.00
2022-07-27T00:27:08.160Z,0.00
2022-07-27T00:28:08.158Z,0.00
2022-07-27T00:29:08.527Z,0.00
2022-07-27T00:30:08.146Z,0.00
2022-07-27T00:31:08.193Z,0.00
2022-07-27T00:32:12.520Z,0.00
2022-07-27T00:33:08.135Z,0.00
2022-07-27T00:34:08.127Z,0.00
2022-07-27T00:35:08.126Z,0.00
2022-07-27T00:36:08.117Z,0.00
2022-07-27T00:37:08.116Z,0.00
2022-07-27T00:38:08.112Z,0.00
2022-07-27T00:39:08.312Z,0.00
2022-07-27T00:40:08.101Z,0.00
2022-07-27T00:41:08.097Z,0.00
2022-07-27T00:42:08.094Z,0.00
2022-07-27T00:43:08.100Z,0.00
2022-07-27T00:44:08.085Z,0.00
2022-07-27T00:45:08.076Z,0.00
2022-07-27T00:46:08.074Z,0.00
2022-07-27T00:47:08.129Z,0.00
2022-07-27T00:48:08.067Z,0.00
2022-07-27T00:49:08.256Z,0.00
2022-07-27T00:50:08.057Z,0.00
2022-07-27T00:51:08.050Z,0.00
2022-07-27T00:52:08.048Z,0.00
2022-07-27T00:53:08.055Z,0.00
2022-07-27T00:54:08.037Z,0.00
2022-07-27T00:55:08.032Z,0.00
2022-07-27T00:56:08.035Z,0.00
2022-07-27T00:57:08.023Z,0.00
2022-07-27T00:58:08.020Z,0.00
2022-07-27T00:59:08.134Z,0.00
2022-07-27T01:00:08.012Z,0.00
2022-07-27T01:01:08.006Z,0.00
2022-07-27T01:02:12.134Z,0.00
2022-07-27T01:03:08.662Z,0.00
2022-07-27T01:04:07.994Z,0.00
2022-07-27T01:05:07.987Z,0.00
2022-07-27T01:06:07.984Z,0.00
2022-07-27T01:07:07.985Z,0.00
2022-07-27T01:08:07.977Z,0.00
2022-07-27T01:09:08.323Z,0.00
2022-07-27T01:10:07.967Z,0.00
2022-07-27T01:11:07.960Z,0.00
2022-07-27T01:12:07.958Z,0.00
2022-07-27T01:13:13.084Z,0.00
2022-07-27T01:14:07.951Z,0.00
2022-07-27T01:15:07.963Z,0.00
2022-07-27T01:16:08.035Z,0.00
2022-07-27T01:17:07.932Z,0.00
2022-07-27T01:18:07.936Z,0.00
2022-07-27T01:19:07.924Z,0.00
2022-07-27T01:20:07.925Z,0.00
2022-07-27T01:21:07.915Z,0.00
2022-07-27T01:22:07.914Z,0.00
2022-07-27T01:23:07.906Z,0.00
2022-07-27T01:24:07.905Z,0.00
2022-07-27T01:25:07.901Z,0.00
2022-07-27T01:26:07.896Z,0.00
2022-07-27T01:27:07.886Z,0.00
2022-07-27T01:28:07.884Z,0.00
2022-07-27T01:29:07.998Z,0.00
2022-07-27T01:30:07.874Z,0.00
2022-07-27T01:31:07.957Z,0.00
2022-07-27T01:32:07.867Z,0.00
2022-07-27T01:33:07.864Z,0.00
2022-07-27T01:34:07.856Z,0.00
2022-07-27T01:35:07.848Z,0.00
2022-07-27T01:36:07.846Z,0.00
2022-07-27T01:37:07.838Z,0.00
2022-07-27T01:38:07.836Z,0.00
2022-07-27T01:39:07.851Z,0.00
2022-07-27T01:40:07.827Z,0.00
2022-07-27T01:41:07.820Z,0.00
2022-07-27T01:42:07.816Z,0.00
2022-07-27T01:43:07.814Z,0.00
2022-07-27T01:44:07.809Z,0.00
2022-07-27T01:45:07.803Z,0.00
2022-07-27T01:46:07.827Z,0.00
2022-07-27T01:47:14.443Z,0.00
2022-07-27T01:48:07.793Z,0.00
2022-07-27T01:49:07.922Z,0.00
2022-07-27T01:50:07.900Z,0.00
2022-07-27T01:51:07.774Z,0.00
2022-07-27T01:52:07.773Z,0.00
2022-07-27T01:53:09.153Z,0.00
2022-07-27T01:54:07.762Z,0.00
2022-07-27T01:55:07.755Z,0.00
2022-07-27T01:56:07.853Z,0.00
2022-07-27T01:57:07.745Z,0.00
2022-07-27T01:58:07.743Z,0.00
2022-07-27T01:59:07.752Z,0.00
2022-07-27T02:00:07.735Z,0.00
2022-07-27T02:01:07.973Z,0.00
2022-07-27T02:02:07.754Z,0.00
2022-07-27T02:03:07.718Z,0.00
2022-07-27T02:04:07.715Z,0.00
2022-07-27T02:05:07.821Z,0.00
2022-07-27T02:06:07.704Z,0.00
2022-07-27T02:07:07.698Z,0.00
2022-07-27T02:08:07.703Z,0.00
2022-07-27T02:09:07.788Z,0.00
2022-07-27T02:10:07.686Z,0.00
2022-07-27T02:11:07.683Z,0.00
2022-07-27T02:12:07.677Z,0.00
2022-07-27T02:13:22.326Z,0.00
2022-07-27T02:14:07.666Z,0.00
2022-07-27T02:15:07.659Z,0.00
2022-07-27T02:16:09.634Z,0.00
2022-07-27T02:17:07.650Z,0.00
2022-07-27T02:18:18.833Z,0.00
2022-07-27T02:19:07.645Z,0.00
2022-07-27T02:20:07.642Z,0.00
2022-07-27T02:21:07.643Z,0.00
2022-07-27T02:22:07.630Z,0.00
2022-07-27T02:23:07.628Z,0.00
2022-07-27T02:24:07.619Z,0.00
2022-07-27T02:25:07.611Z,0.00
2022-07-27T02:26:07.609Z,0.00
2022-07-27T02:27:07.603Z,0.00
2022-07-27T02:28:07.601Z,0.00
2022-07-27T02:29:07.592Z,0.00
2022-07-27T02:30:07.589Z,0.00
2022-07-27T02:31:07.595Z,0.00
2022-07-27T02:32:07.581Z,0.00
2022-07-27T02:33:07.663Z,0.00
2022-07-27T02:34:07.572Z,0.00
2022-07-27T02:35:19.598Z,0.00
2022-07-27T02:36:07.563Z,0.00
2022-07-27T02:37:07.555Z,0.00
2022-07-27T02:38:07.559Z,0.00
2022-07-27T02:39:07.544Z,0.00
2022-07-27T02:40:07.543Z,0.00
2022-07-27T02:41:07.540Z,0.00
2022-07-27T02:42:07.535Z,0.00
2022-07-27T02:43:07.526Z,0.00
2022-07-27T02:44:07.533Z,0.00
2022-07-27T02:45:07.516Z,0.00
2022-07-27T02:46:07.615Z,0.00
2022-07-27T02:47:07.512Z,0.00
2022-07-27T02:48:08.426Z,0.00
2022-07-27T02:49:07.551Z,0.00
2022-07-27T02:50:07.493Z,0.00
2022-07-27T02:51:07.487Z,0.00
2022-07-27T02:52:07.486Z,0.00
2022-07-27T02:53:07.483Z,0.00
2022-07-27T02:54:07.473Z,0.00
2022-07-27T02:55:07.468Z,0.00
2022-07-27T02:56:07.461Z,0.00
2022-07-27T02:57:07.456Z,0.00
2022-07-27T02:58:07.450Z,0.00
2022-07-27T02:59:07.447Z,0.00
2022-07-27T03:00:07.446Z,0.00
2022-07-27T03:01:07.481Z,0.00
2022-07-27T03:02:07.633Z,0.00
2022-07-27T03:03:07.427Z,0.00
2022-07-27T03:04:07.441Z,0.00
2022-07-27T03:05:07.414Z,0.00
2022-07-27T03:06:07.418Z,0.00
2022-07-27T03:07:07.404Z,0.00
2022-07-27T03:08:07.400Z,0.00
2022-07-27T03:09:07.391Z,0.00
2022-07-27T03:10:07.388Z,0.00
2022-07-27T03:11:07.382Z,0.00
2022-07-27T03:12:07.380Z,0.00
2022-07-27T03:13:07.372Z,0.00
2022-07-27T03:14:07.367Z,0.00
2022-07-27T03:15:07.360Z,0.00
2022-07-27T03:16:07.399Z,0.00
2022-07-27T03:17:07.352Z,0.00
2022-07-27T03:18:07.346Z,0.00
2022-07-27T03:19:07.341Z,0.00
2022-07-27T03:20:08.882Z,0.00
2022-07-27T03:21:07.330Z,0.00
2022-07-27T03:22:07.321Z,0.00
2022-07-27T03:23:07.315Z,0.00
2022-07-27T03:24:07.312Z,0.00
2022-07-27T03:25:07.303Z,0.00
2022-07-27T03:26:07.300Z,4.00
2022-07-27T03:27:07.290Z,0.00
2022-07-27T03:28:07.288Z,0.00
2022-07-27T03:29:07.299Z,4.00
2022-07-27T03:30:07.280Z,4.00
2022-07-27T03:31:07.356Z,0.00
2022-07-27T03:32:07.263Z,4.00
2022-07-27T03:33:07.257Z,4.00
2022-07-27T03:34:07.250Z,8.00
2022-07-27T03:35:07.243Z,8.00
2022-07-27T03:36:07.238Z,8.00
2022-07-27T03:37:07.230Z,12.00
2022-07-27T03:38:07.229Z,12.00
2022-07-27T03:39:07.220Z,12.00
2022-07-27T03:40:07.215Z,12.00
2022-07-27T03:41:07.206Z,16.00
2022-07-27T03:42:07.204Z,20.00
2022-07-27T03:43:07.196Z,20.00
2022-07-27T03:44:07.191Z,24.00
2022-07-27T03:45:07.182Z,24.00
2022-07-27T03:46:07.265Z,28.00
2022-07-27T03:47:07.171Z,32.00
2022-07-27T03:48:07.167Z,32.00
2022-07-27T03:49:13.751Z,36.00
2022-07-27T03:50:07.159Z,40.00
2022-07-27T03:51:07.147Z,40.00
2022-07-27T03:52:07.145Z,40.00
2022-07-27T03:53:07.136Z,44.00
2022-07-27T03:54:07.130Z,44.00
2022-07-27T03:55:07.123Z,48.00
2022-07-27T03:56:07.118Z,44.00
2022-07-27T03:57:07.112Z,52.00
2022-07-27T03:58:07.107Z,52.00
2022-07-27T03:59:07.100Z,56.00
2022-07-27T04:00:07.096Z,56.00
2022-07-27T04:01:07.137Z,60.00
2022-07-27T04:02:07.129Z,64.00
2022-07-27T04:03:07.078Z,68.00
2022-07-27T04:04:07.072Z,68.00
2022-07-27T04:05:07.065Z,64.00
2022-07-27T04:06:07.060Z,64.00
2022-07-27T04:07:07.051Z,64.00
2022-07-27T04:08:07.050Z,64.00
2022-07-27T04:09:13.776Z,60.00
2022-07-27T04:10:07.037Z,64.00
2022-07-27T04:11:07.707Z,64.00
2022-07-27T04:12:07.025Z,68.00
2022-07-27T04:13:07.017Z,76.00
2022-07-27T04:14:07.014Z,80.00
2022-07-27T04:15:07.008Z,84.00
2022-07-27T04:16:07.001Z,88.00
2022-07-27T04:17:07.058Z,88.00
2022-07-27T04:18:06.990Z,88.00
2022-07-27T04:19:06.982Z,92.00
2022-07-27T04:20:06.980Z,96.00
2022-07-27T04:21:06.971Z,100.00
2022-07-27T04:22:06.968Z,108.00
2022-07-27T04:23:06.959Z,108.00
2022-07-27T04:24:06.957Z,112.00
2022-07-27T04:25:07.045Z,112.00
2022-07-27T04:26:06.943Z,108.00
2022-07-27T04:27:06.936Z,116.00
2022-07-27T04:28:06.932Z,120.00
2022-07-27T04:29:06.924Z,132.00
2022-07-27T04:30:09.510Z,148.00
2022-07-27T04:31:06.998Z,160.00
2022-07-27T04:32:06.908Z,168.00
2022-07-27T04:33:06.899Z,180.00
2022-07-27T04:34:06.895Z,188.00
2022-07-27T04:35:06.888Z,192.00
2022-07-27T04:36:06.900Z,192.00
2022-07-27T04:37:06.879Z,204.00
2022-07-27T04:38:06.873Z,208.00
2022-07-27T04:39:06.871Z,212.00
2022-07-27T04:40:06.863Z,212.00
2022-07-27T04:41:06.854Z,216.00
2022-07-27T04:42:06.851Z,220.00
2022-07-27T04:43:07.577Z,240.00
2022-07-27T04:44:06.840Z,260.00
2022-07-27T04:45:06.831Z,280.00
2022-07-27T04:46:10.555Z,300.00
2022-07-27T04:47:06.821Z,324.00
2022-07-27T04:48:06.819Z,356.00
2022-07-27T04:49:06.903Z,384.00
2022-07-27T04:50:06.804Z,408.00
2022-07-27T04:51:06.797Z,432.00
2022-07-27T04:52:06.794Z,452.00
2022-07-27T04:53:06.785Z,472.00
2022-07-27T04:54:06.780Z,512.00
2022-07-27T04:55:06.776Z,556.00
2022-07-27T04:56:06.771Z,580.00
2022-07-27T04:57:06.765Z,564.00
2022-07-27T04:58:06.758Z,536.00
2022-07-27T04:59:06.754Z,516.00
2022-07-27T05:00:06.751Z,512.00
2022-07-27T05:01:06.802Z,536.00
2022-07-27T05:02:06.737Z,556.00
2022-07-27T05:03:06.731Z,576.00
2022-07-27T05:04:06.776Z,596.00
2022-07-27T05:05:06.719Z,608.00
2022-07-27T05:06:06.713Z,640.00
2022-07-27T05:07:06.709Z,688.00
2022-07-27T05:08:06.701Z,744.00
2022-07-27T05:09:06.698Z,820.00
2022-07-27T05:10:06.690Z,908.00
2022-07-27T05:11:06.699Z,956.00
2022-07-27T05:12:06.687Z,1032.00
2022-07-27T05:13:07.425Z,1104.00
2022-07-27T05:14:06.673Z,1204.00
2022-07-27T05:15:06.694Z,1304.00
2022-07-27T05:16:06.722Z,1348.00
2022-07-27T05:17:06.653Z,1432.00
2022-07-27T05:18:06.649Z,1512.00
2022-07-27T05:19:06.645Z,1544.00
2022-07-27T05:20:06.634Z,1624.00
2022-07-27T05:21:06.679Z,1752.00
2022-07-27T05:22:06.625Z,1852.00
2022-07-27T05:23:06.621Z,1904.00
2022-07-27T05:24:06.615Z,1900.00
2022-07-27T05:25:06.609Z,1868.00
2022-07-27T05:26:06.605Z,1844.00
2022-07-27T05:27:06.604Z,1844.00
2022-07-27T05:28:06.594Z,1908.00
2022-07-27T05:29:06.590Z,1960.00
2022-07-27T05:30:06.583Z,1992.00
2022-07-27T05:31:06.580Z,2004.00
2022-07-27T05:32:06.688Z,1956.00
2022-07-27T05:33:06.569Z,1832.00
2022-07-27T05:34:06.565Z,1736.00
2022-07-27T05:35:06.558Z,1680.00
2022-07-27T05:36:07.836Z,1672.00
2022-07-27T05:37:06.550Z,1696.00
2022-07-27T05:38:06.542Z,1720.00
2022-07-27T05:39:10.425Z,1748.00
2022-07-27T05:40:06.534Z,1776.00
2022-07-27T05:41:06.530Z,1808.00
2022-07-27T05:42:06.522Z,1864.00
2022-07-27T05:43:06.520Z,1936.00
2022-07-27T05:44:06.512Z,2004.00
2022-07-27T05:45:06.509Z,2052.00
2022-07-27T05:46:06.666Z,2056.00
2022-07-27T05:47:06.662Z,2016.00
2022-07-27T05:48:06.493Z,1952.00
2022-07-27T05:49:06.662Z,1880.00
2022-07-27T05:50:06.481Z,1856.00
2022-07-27T05:51:06.484Z,1864.00
2022-07-27T05:52:06.473Z,1916.00
2022-07-27T05:53:06.469Z,2004.00
2022-07-27T05:54:06.463Z,2116.00
2022-07-27T05:55:06.465Z,2248.00
2022-07-27T05:56:06.452Z,2336.00
2022-07-27T05:57:06.448Z,2420.00
2022-07-27T05:58:06.443Z,2492.00
2022-07-27T05:59:07.472Z,2552.00
2022-07-27T06:00:06.466Z,2596.00
2022-07-27T06:01:06.502Z,2644.00
2022-07-27T06:02:06.423Z,2992.00
2022-07-27T06:03:06.487Z,2740.00
2022-07-27T06:04:06.416Z,2792.00
2022-07-27T06:05:09.349Z,2884.00
2022-07-27T06:06:06.403Z,2996.00
2022-07-27T06:07:06.399Z,3152.00
2022-07-27T06:08:06.393Z,3296.00
2022-07-27T06:09:06.390Z,3320.00
2022-07-27T06:10:06.388Z,3384.00
2022-07-27T06:11:06.379Z,3452.00
2022-07-27T06:12:06.373Z,3524.00
2022-07-27T06:13:06.371Z,3504.00
2022-07-27T06:14:06.363Z,3360.00
2022-07-27T06:15:06.360Z,3304.00
2022-07-27T06:16:06.376Z,3244.00
2022-07-27T06:17:06.351Z,3192.00
2022-07-27T06:18:06.345Z,3228.00
2022-07-27T06:19:06.349Z,3140.00
2022-07-27T06:20:06.337Z,3120.00
2022-07-27T06:21:06.334Z,3108.00
2022-07-27T06:22:06.323Z,3596.00
2022-07-27T06:23:07.644Z,3172.00
2022-07-27T06:24:06.316Z,3188.00
2022-07-27T06:25:06.317Z,3252.00
2022-07-27T06:26:06.307Z,3280.00
2022-07-27T06:27:06.310Z,3284.00
2022-07-27T06:28:06.306Z,3452.00
2022-07-27T06:29:09.959Z,3264.00
2022-07-27T06:30:06.289Z,3192.00
2022-07-27T06:31:06.327Z,3172.00
2022-07-27T06:32:06.345Z,3208.00
2022-07-27T06:33:06.458Z,3332.00
2022-07-27T06:34:10.855Z,3288.00
2022-07-27T06:35:06.274Z,3364.00
2022-07-27T06:36:06.264Z,3688.00
2022-07-27T06:37:06.276Z,3516.00
2022-07-27T06:38:06.255Z,3636.00
2022-07-27T06:39:06.254Z,3692.00
2022-07-27T06:40:06.247Z,4064.00
2022-07-27T06:41:06.244Z,3616.00
2022-07-27T06:42:06.239Z,3560.00
2022-07-27T06:43:06.237Z,3516.00
2022-07-27T06:44:06.230Z,3476.00
2022-07-27T06:45:06.236Z,3420.00
2022-07-27T06:46:06.220Z,3388.00
2022-07-27T06:47:06.263Z,3356.00
2022-07-27T06:48:06.214Z,3344.00
2022-07-27T06:49:06.275Z,3336.00
2022-07-27T06:50:06.206Z,3352.00
2022-07-27T06:51:06.204Z,3508.00
2022-07-27T06:52:06.198Z,3992.00
2022-07-27T06:53:06.195Z,3608.00
2022-07-27T06:54:06.189Z,3760.00
2022-07-27T06:55:06.188Z,3632.00
2022-07-27T06:56:06.181Z,3852.00
2022-07-27T06:57:06.179Z,3592.00
2022-07-27T06:58:06.174Z,3836.00
2022-07-27T06:59:06.173Z,3584.00
2022-07-27T07:00:06.175Z,3312.00
2022-07-27T07:01:06.258Z,3276.00
2022-07-27T07:02:06.161Z,3564.00
2022-07-27T07:03:06.160Z,3512.00
2022-07-27T07:04:06.202Z,3192.00
2022-07-27T07:05:06.150Z,3292.00
2022-07-27T07:06:06.146Z,3244.00
2022-07-27T07:07:07.406Z,3180.00
2022-07-27T07:08:06.142Z,3192.00
2022-07-27T07:09:06.138Z,3420.00
2022-07-27T07:10:06.131Z,3020.00
2022-07-27T07:11:06.131Z,3004.00
2022-07-27T07:12:06.126Z,2960.00
2022-07-27T07:13:06.125Z,2864.00
2022-07-27T07:14:06.119Z,2864.00
2022-07-27T07:15:06.119Z,2972.00
2022-07-27T07:16:06.187Z,2856.00
2022-07-27T07:17:06.109Z,2936.00
2022-07-27T07:18:06.102Z,2784.00
2022-07-27T07:19:06.106Z,2728.00
2022-07-27T07:20:06.097Z,2724.00
2022-07-27T07:21:06.094Z,2760.00
2022-07-27T07:22:06.089Z,2664.00
2022-07-27T07:23:06.088Z,2624.00
2022-07-27T07:24:06.081Z,2792.00
2022-07-27T07:25:06.079Z,2504.00
2022-07-27T07:26:06.073Z,2464.00
2022-07-27T07:27:06.072Z,2452.00
2022-07-27T07:28:06.071Z,2464.00
2022-07-27T07:29:06.063Z,2492.00
2022-07-27T07:30:06.057Z,2824.00
2022-07-27T07:31:06.133Z,2608.00
2022-07-27T07:32:06.053Z,2540.00
2022-07-27T07:33:06.052Z,2520.00
2022-07-27T07:34:06.062Z,2476.00
2022-07-27T07:35:06.042Z,2428.00
2022-07-27T07:36:12.199Z,2396.00
2022-07-27T07:37:06.034Z,2364.00
2022-07-27T07:38:06.030Z,2344.00
2022-07-27T07:39:06.028Z,2328.00
2022-07-27T07:40:39.927Z,2344.00
2022-07-27T07:41:06.018Z,2492.00
2022-07-27T07:42:06.013Z,2496.00
2022-07-27T07:43:06.012Z,2348.00
2022-07-27T07:44:06.006Z,2316.00
2022-07-27T07:45:06.002Z,2332.00
2022-07-27T07:46:06.136Z,2356.00
2022-07-27T07:47:06.092Z,2372.00
2022-07-27T07:48:05.990Z,2368.00
2022-07-27T07:49:06.055Z,2396.00
2022-07-27T07:50:05.981Z,2360.00
2022-07-27T07:51:05.985Z,2388.00
2022-07-27T07:52:05.977Z,2460.00
2022-07-27T07:53:05.972Z,2468.00
2022-07-27T07:54:05.970Z,2508.00
2022-07-27T07:55:05.967Z,2596.00
2022-07-27T07:56:05.963Z,2468.00
2022-07-27T07:57:05.960Z,2476.00
2022-07-27T07:58:05.953Z,2444.00
2022-07-27T07:59:05.953Z,2808.00
2022-07-27T08:00:05.947Z,2704.00
2022-07-27T08:01:05.950Z,2436.00
2022-07-27T08:02:05.999Z,2580.00
2022-07-27T08:04:05.934Z,2528.00
2022-07-27T08:05:05.927Z,2852.00
2022-07-27T08:06:05.927Z,2844.00
2022-07-27T08:07:05.924Z,2600.00
2022-07-27T08:08:05.926Z,2540.00
2022-07-27T08:09:05.914Z,2676.00
2022-07-27T08:10:05.913Z,2624.00
2022-07-27T08:11:05.911Z,2596.00
2022-07-27T08:12:05.909Z,2612.00
2022-07-27T08:13:06.000Z,2800.00
2022-07-27T08:14:05.899Z,2796.00
2022-07-27T08:15:05.894Z,2912.00
2022-07-27T08:16:06.013Z,2820.00
2022-07-27T08:17:05.888Z,2884.00
2022-07-27T08:18:05.982Z,2984.00
2022-07-27T08:19:05.882Z,3028.00
2022-07-27T08:20:05.881Z,3404.00
2022-07-27T08:21:05.876Z,3344.00
2022-07-27T08:22:05.874Z,3136.00
2022-07-27T08:23:05.869Z,2996.00
2022-07-27T08:24:05.872Z,3188.00
2022-07-27T08:25:05.863Z,3204.00
2022-07-27T08:26:08.122Z,3076.00
2022-07-27T08:27:05.858Z,3092.00
2022-07-27T08:28:05.858Z,3064.00
2022-07-27T08:29:09.047Z,2888.00
2022-07-27T08:30:05.854Z,2704.00
2022-07-27T08:31:13.945Z,2816.00
2022-07-27T08:32:06.028Z,2928.00
2022-07-27T08:33:05.841Z,2796.00
2022-07-27T08:34:05.945Z,2880.00
2022-07-27T08:35:05.837Z,2872.00
2022-07-27T08:36:05.839Z,2884.00
2022-07-27T08:37:05.835Z,2784.00
2022-07-27T08:38:05.855Z,2772.00
2022-07-27T08:39:05.829Z,2872.00
2022-07-27T08:40:38.687Z,2904.00
2022-07-27T08:41:05.825Z,2912.00
2022-07-27T08:42:05.825Z,2892.00
2022-07-27T08:43:05.832Z,2880.00
2022-07-27T08:44:05.822Z,2868.00
2022-07-27T08:45:05.819Z,2820.00
2022-07-27T08:46:05.924Z,2816.00
2022-07-27T08:47:05.883Z,2904.00
2022-07-27T08:48:05.823Z,2868.00
2022-07-27T08:49:05.851Z,2920.00
2022-07-27T08:50:05.812Z,2928.00
2022-07-27T08:51:05.810Z,2936.00
2022-07-27T08:52:05.810Z,2956.00
2022-07-27T08:53:06.037Z,2988.00
2022-07-27T08:54:05.808Z,3004.00
2022-07-27T08:55:05.803Z,3020.00
2022-07-27T08:56:05.810Z,2912.00
2022-07-27T08:57:05.800Z,2752.00
2022-07-27T08:58:05.817Z,2976.00
2022-07-27T08:59:05.798Z,2836.00
2022-07-27T09:00:05.801Z,2592.00
2022-07-27T09:01:05.797Z,2512.00
2022-07-27T09:02:05.842Z,2924.00
2022-07-27T09:03:05.896Z,3052.00
2022-07-27T09:04:05.797Z,2536.00
2022-07-27T09:05:05.790Z,2536.00
2022-07-27T09:06:05.794Z,2600.00
2022-07-27T09:07:05.790Z,2552.00
2022-07-27T09:08:05.792Z,2588.00
2022-07-27T09:09:05.787Z,2484.00
2022-07-27T09:10:05.791Z,2432.00
2022-07-27T09:11:05.789Z,2420.00
2022-07-27T09:12:05.788Z,2432.00
2022-07-27T09:13:05.786Z,2456.00
2022-07-27T09:14:05.782Z,2492.00
2022-07-27T09:15:05.790Z,2588.00
2022-07-27T09:16:18.138Z,2624.00
2022-07-27T09:18:05.823Z,2748.00
2022-07-27T09:19:05.784Z,2640.00
2022-07-27T09:20:05.780Z,2676.00
2022-07-27T09:21:05.777Z,2600.00
2022-07-27T09:22:05.778Z,2600.00
2022-07-27T09:23:05.776Z,3036.00
2022-07-27T09:24:13.162Z,2904.00
2022-07-27T09:25:05.774Z,3452.00
2022-07-27T09:26:15.570Z,3468.00
2022-07-27T09:27:06.088Z,3588.00
2022-07-27T09:28:05.768Z,3624.00
2022-07-27T09:29:05.775Z,3632.00
2022-07-27T09:30:05.769Z,3640.00
2022-07-27T09:31:05.847Z,3628.00
2022-07-27T09:32:05.766Z,3584.00
2022-07-27T09:33:05.766Z,3356.00
2022-07-27T09:34:05.765Z,3524.00
2022-07-27T09:35:05.765Z,3592.00
2022-07-27T09:36:05.764Z,3308.00
2022-07-27T09:37:06.152Z,3340.00
2022-07-27T09:38:05.761Z,3368.00
2022-07-27T09:39:05.807Z,3388.00
2022-07-27T09:40:05.764Z,3476.00
2022-07-27T09:41:05.764Z,3616.00
2022-07-27T09:42:06.119Z,3152.00
2022-07-27T09:43:28.116Z,3060.00
2022-07-27T09:44:30.769Z,3256.00
2022-07-27T09:45:05.767Z,3192.00
2022-07-27T09:46:05.839Z,3316.00
2022-07-27T09:47:05.762Z,3320.00
2022-07-27T09:48:05.762Z,3560.00
2022-07-27T09:49:05.837Z,3432.00
2022-07-27T09:50:05.762Z,3496.00
2022-07-27T09:51:43.456Z,3300.00
2022-07-27T09:52:05.767Z,3424.00
2022-07-27T09:53:25.604Z,3104.00
2022-07-27T09:54:05.761Z,3084.00
2022-07-27T09:55:05.765Z,3084.00
2022-07-27T09:56:05.768Z,3224.00
2022-07-27T09:57:05.765Z,3380.00
2022-07-27T09:58:05.763Z,3512.00
2022-07-27T09:59:05.781Z,3424.00
2022-07-27T10:00:05.763Z,3540.00
2022-07-27T10:01:05.767Z,3648.00
2022-07-27T10:02:05.853Z,3716.00
2022-07-27T10:03:05.764Z,3748.00
2022-07-27T10:04:05.816Z,3800.00
2022-07-27T10:05:05.851Z,3828.00
2022-07-27T10:06:05.773Z,3824.00
2022-07-27T10:07:10.637Z,3796.00
2022-07-27T10:08:05.766Z,3772.00
2022-07-27T10:09:05.768Z,3476.00
2022-07-27T10:10:05.778Z,2920.00
2022-07-27T10:11:05.770Z,2944.00
2022-07-27T10:12:05.770Z,2972.00
2022-07-27T10:13:05.771Z,3008.00
2022-07-27T10:14:05.818Z,3096.00
2022-07-27T10:15:05.772Z,3352.00
2022-07-27T10:16:05.879Z,3448.00
2022-07-27T10:17:05.772Z,3448.00
2022-07-27T10:18:07.384Z,3492.00
2022-07-27T10:19:08.110Z,3128.00
2022-07-27T10:20:05.783Z,3080.00
2022-07-27T10:21:05.775Z,3184.00
2022-07-27T10:22:05.774Z,3296.00
2022-07-27T10:23:06.678Z,3820.00
2022-07-27T10:24:05.777Z,4160.00
2022-07-27T10:25:05.779Z,4204.00
2022-07-27T10:26:05.777Z,4256.00
2022-07-27T10:27:05.789Z,4288.00
2022-07-27T10:28:05.779Z,4324.00
2022-07-27T10:29:05.782Z,4320.00
2022-07-27T10:30:05.780Z,4340.00
2022-07-27T10:31:05.830Z,4376.00
2022-07-27T10:32:05.782Z,4364.00
2022-07-27T10:33:05.786Z,4364.00
2022-07-27T10:34:05.784Z,4000.00
2022-07-27T10:35:05.792Z,4056.00
2022-07-27T10:36:05.786Z,4504.00
2022-07-27T10:37:05.792Z,4400.00
2022-07-27T10:38:05.789Z,4516.00
2022-07-27T10:39:05.792Z,4504.00
2022-07-27T10:40:05.792Z,4496.00
2022-07-27T10:41:05.793Z,4432.00
2022-07-27T10:42:05.794Z,4276.00
2022-07-27T10:43:05.803Z,4184.00
2022-07-27T10:44:05.810Z,4332.00
2022-07-27T10:45:05.801Z,4296.00
2022-07-27T10:46:05.861Z,4140.00
2022-07-27T10:47:05.806Z,3388.00
2022-07-27T10:48:05.803Z,3276.00
2022-07-27T10:49:05.892Z,3200.00
2022-07-27T10:50:05.806Z,3112.00
2022-07-27T10:51:05.809Z,3100.00
2022-07-27T10:52:05.811Z,3084.00
2022-07-27T10:53:05.817Z,3108.00
2022-07-27T10:54:12.949Z,3072.00
2022-07-27T10:55:05.820Z,2968.00
2022-07-27T10:56:05.817Z,2876.00
2022-07-27T10:57:05.831Z,2828.00
2022-07-27T10:58:05.818Z,2804.00
2022-07-27T10:59:05.821Z,2764.00
2022-07-27T11:00:09.405Z,2700.00
2022-07-27T11:01:05.850Z,2668.00
2022-07-27T11:02:05.821Z,2664.00
2022-07-27T11:03:05.825Z,2680.00
2022-07-27T11:04:05.850Z,2708.00
2022-07-27T11:05:05.825Z,2732.00
2022-07-27T11:06:36.317Z,2740.00
2022-07-27T11:07:24.790Z,2752.00
2022-07-27T11:08:35.661Z,2776.00
2022-07-27T11:10:05.924Z,2880.00
2022-07-27T11:11:05.837Z,2948.00
2022-07-27T11:12:05.840Z,3020.00
2022-07-27T11:13:05.830Z,3120.00
2022-07-27T11:14:05.832Z,3212.00
2022-07-27T11:15:05.831Z,3512.00
2022-07-27T11:18:05.924Z,3340.00
2022-07-27T11:19:05.865Z,3360.00
2022-07-27T11:20:05.831Z,3360.00
2022-07-27T11:21:05.835Z,3376.00
2022-07-27T11:22:12.842Z,3388.00
2022-07-27T11:24:05.833Z,3444.00
2022-07-27T11:25:05.836Z,3476.00
2022-07-27T11:26:05.835Z,3476.00
2022-07-27T11:27:17.727Z,3500.00
2022-07-27T11:28:05.843Z,3512.00
2022-07-27T11:29:05.838Z,3604.00
2022-07-27T11:30:05.835Z,3516.00
2022-07-27T11:31:05.886Z,3536.00
2022-07-27T11:32:05.897Z,3424.00
2022-07-27T11:33:05.841Z,3392.00
2022-07-27T11:34:05.839Z,3468.00
2022-07-27T11:35:10.725Z,4040.00
2022-07-27T11:36:05.840Z,3420.00
2022-07-27T11:37:05.842Z,3632.00
2022-07-27T11:38:05.850Z,3140.00
2022-07-27T11:39:05.844Z,3304.00
2022-07-27T11:40:37.014Z,3708.00
2022-07-27T11:41:17.030Z,3540.00
2022-07-27T11:42:08.494Z,3376.00
2022-07-27T11:43:05.848Z,3156.00
2022-07-27T11:44:05.864Z,3140.00
2022-07-27T11:45:05.850Z,3332.00
2022-07-27T11:46:05.915Z,3516.00
2022-07-27T11:47:05.854Z,3136.00
2022-07-27T11:48:05.852Z,3112.00
2022-07-27T11:49:07.574Z,3108.00
2022-07-27T11:50:05.913Z,3080.00
2022-07-27T11:51:05.855Z,3076.00
2022-07-27T11:52:05.867Z,3072.00
2022-07-27T11:53:05.857Z,3076.00
2022-07-27T11:54:05.854Z,3092.00
2022-07-27T11:55:05.861Z,3088.00
2022-07-27T11:56:05.857Z,3048.00
2022-07-27T11:57:05.960Z,3012.00
2022-07-27T11:58:05.861Z,3008.00
2022-07-27T11:59:05.861Z,3016.00
2022-07-27T12:00:05.938Z,3020.00
2022-07-27T12:01:05.861Z,3004.00
2022-07-27T12:02:05.908Z,3036.00
2022-07-27T12:03:05.866Z,3048.00
2022-07-27T12:04:05.864Z,3024.00
2022-07-27T12:05:05.911Z,3028.00
2022-07-27T12:06:05.867Z,3016.00
2022-07-27T12:07:05.885Z,3040.00
2022-07-27T12:08:05.868Z,3056.00
2022-07-27T12:09:05.872Z,3156.00
2022-07-27T12:10:05.907Z,3296.00
2022-07-27T12:11:05.871Z,3260.00
2022-07-27T12:12:05.872Z,3348.00
2022-07-27T12:13:05.874Z,3204.00
2022-07-27T12:14:05.874Z,3184.00
2022-07-27T12:16:05.880Z,3124.00
2022-07-27T12:17:05.989Z,3140.00
2022-07-27T12:18:05.888Z,3144.00
2022-07-27T12:19:05.928Z,3224.00
2022-07-27T12:21:05.883Z,3352.00
2022-07-27T12:22:05.882Z,3456.00
2022-07-27T12:23:05.895Z,3856.00
2022-07-27T12:24:05.884Z,3712.00
2022-07-27T12:25:10.007Z,3796.00
2022-07-27T12:26:05.888Z,3836.00
2022-07-27T12:27:06.767Z,3912.00
2022-07-27T12:28:05.905Z,3952.00
2022-07-27T12:29:05.894Z,3892.00
2022-07-27T12:30:05.985Z,3456.00
2022-07-27T12:31:06.022Z,3316.00
2022-07-27T12:32:05.899Z,3140.00
2022-07-27T12:33:05.899Z,3048.00
2022-07-27T12:34:06.721Z,3040.00
2022-07-27T12:35:05.903Z,2836.00
2022-07-27T12:36:05.904Z,2840.00
2022-07-27T12:37:05.906Z,2680.00